Time;durP1;ratioP1;P1;durP2;ratioP2;P2;SDS_P1;SDS_P2;PMS_P1;PMS_P2;Temp;Humidity;BMP_temperature;BMP_pressure;BME280_temperature;BME280_humidity;BME280_pressure;Samples;Min_cycle;Max_cycle;Signal;HPM_P1;HPM_P2
2021/01/21 00:00:23;;;;;;;;;;;;;;;8.29;63.01;98947.03;4982002;28;962;-78
2021/01/21 00:02:48;;;;;;;;;;;;;;;8.31;63.10;98944.69;4979064;28;1965;-78
2021/01/21 00:05:13;;;;;;;;;;;;;;;8.31;63.21;98938.41;4978548;28;2066;-78
2021/01/21 00:07:39;;;;;;;;;;;;;;;8.31;63.87;98935.66;4976980;28;1396;-78
2021/01/21 00:10:05;;;;;;;;;;;;;;;8.26;63.76;98929.31;4978423;28;1926;-78
2021/01/21 00:12:30;;;;;;;;;;;;;;;8.24;63.85;98923.41;4977235;28;928;-78
2021/01/21 00:14:56;;;;;;;;;;;;;;;8.28;63.06;98910.47;4977346;28;909;-78
2021/01/21 00:17:21;;;;;;;;;;;;;;;8.29;63.83;98923.06;4976653;28;1348;-78
2021/01/21 00:19:46;;;;;;;;;;;;;;;8.29;63.81;98911.28;4977469;28;1928;-78
2021/01/21 00:22:12;;;;;;;;;;;;;;;8.26;63.77;98904.56;4976193;28;1906;-78
2021/01/21 00:24:37;;;;;;;;;;;;;;;8.21;63.89;98901.38;4977225;28;823;-78
2021/01/21 00:27:02;;;;;;;;;;;;;;;8.25;63.24;98889.25;4976832;28;859;-79
2021/01/21 00:29:28;;;;;;;;;;;;;;;8.24;63.73;98886.88;4977109;28;2114;-78
2021/01/21 00:31:53;;;;;;;;;;;;;;;8.34;63.00;98872.47;4978120;28;838;-78
2021/01/21 00:34:19;;;;;;;;;;;;;;;8.29;63.58;98876.31;4982718;28;1000;-79
2021/01/21 00:36:44;;;;;;;;;;;;;;;8.24;63.47;98868.41;4978225;28;1047;-78
2021/01/21 00:39:09;;;;;;;;;;;;;;;8.18;64.38;98866.38;4976445;28;1949;-78
2021/01/21 00:41:35;;;;;;;;;;;;;;;8.20;64.79;98862.09;4975344;28;1890;-78
2021/01/21 00:44:00;;;;;;;;;;;;;;;8.24;63.34;98848.38;4977589;28;893;-78
2021/01/21 00:46:25;;;;;;;;;;;;;;;8.29;63.54;98848.06;4976601;28;1004;-78
2021/01/21 00:48:51;;;;;;;;;;;;;;;8.23;63.67;98853.06;4976596;28;2152;-78
2021/01/21 00:51:16;;;;;;;;;;;;;;;8.25;63.66;98844.44;4977099;28;894;-78
2021/01/21 00:53:42;;;;;;;;;;;;;;;8.18;64.15;98847.91;4977172;28;883;-78
2021/01/21 00:56:07;;;;;;;;;;;;;;;8.10;65.33;98838.81;4980142;28;901;-78
2021/01/21 00:58:32;;;;;;;;;;;;;;;8.05;66.18;98821.88;4979406;28;2167;-78
2021/01/21 01:00:58;;;;;;;;;;;;;;;8.03;65.68;98841.47;4980056;28;796;-77
2021/01/21 01:03:23;;;;;;;;;;;;;;;8.12;65.43;98821.94;4978539;28;1902;-78
2021/01/21 01:05:49;;;;;;;;;;;;;;;8.02;65.57;98822.59;4979554;28;862;-78
2021/01/21 01:08:14;;;;;;;;;;;;;;;8.13;65.00;98819.97;4980156;28;1918;-78
2021/01/21 01:10:39;;;;;;;;;;;;;;;8.06;65.40;98817.94;4980222;28;893;-78
2021/01/21 01:13:05;;;;;;;;;;;;;;;8.01;65.48;98810.84;4980123;28;957;-78
2021/01/21 01:15:33;;;;;;;;;;;;;;;7.96;66.03;98810.34;4979309;28;977;-78
2021/01/21 01:18:01;;;;;;;;;;;;;;;7.97;65.51;98804.50;4979300;28;2155;-78
2021/01/21 01:20:27;;;;;;;;;;;;;;;8.01;65.18;98790.78;4981829;28;2059;-78
2021/01/21 01:22:54;;;;;;;;;;;;;;;7.91;65.49;98784.81;4979947;28;1898;-78
2021/01/21 01:25:20;;;;;;;;;;;;;;;7.86;65.95;98787.09;4980654;28;862;-78
2021/01/21 01:27:45;;;;;;;;;;;;;;;7.85;66.08;98777.28;4979882;28;2138;-79
2021/01/21 01:30:12;;;;;;;;;;;;;;;7.76;65.97;98772.06;4980054;28;988;-78
2021/01/21 01:32:37;;;;;;;;;;;;;;;7.81;66.16;98770.94;4980069;28;1020;-78
2021/01/21 01:35:04;;;;;;;;;;;;;;;7.81;66.18;98760.75;4980553;28;1369;-78
2021/01/21 01:37:29;;;;;;;;;;;;;;;7.88;65.67;98762.78;4979987;28;2001;-79
2021/01/21 01:39:55;;;;;;;;;;;;;;;7.86;66.46;98748.63;4980291;28;993;-78
2021/01/21 01:42:20;;;;;;;;;;;;;;;7.70;67.28;98754.34;4980347;28;1898;-78
2021/01/21 01:44:45;;;;;;;;;;;;;;;7.76;66.60;98741.84;4980291;28;977;-78
2021/01/21 01:47:11;;;;;;;;;;;;;;;7.95;66.12;98742.84;4982290;28;1923;-78
2021/01/21 01:49:37;;;;;;;;;;;;;;;7.73;66.02;98726.09;4983349;28;1096;-78
2021/01/21 01:52:03;;;;;;;;;;;;;;;7.61;66.92;98721.66;4979900;28;894;-78
2021/01/21 01:54:28;;;;;;;;;;;;;;;7.58;67.02;98735.34;4980611;28;814;-78
2021/01/21 01:56:55;;;;;;;;;;;;;;;7.67;66.78;98733.13;4979854;28;1931;-78
2021/01/21 01:59:20;;;;;;;;;;;;;;;7.59;66.91;98714.97;4980415;28;1267;-78
2021/01/21 02:01:46;;;;;;;;;;;;;;;7.49;67.31;98706.25;4979877;28;1898;-78
2021/01/21 02:04:12;;;;;;;;;;;;;;;7.47;67.55;98696.78;4979737;28;945;-78
2021/01/21 02:06:37;;;;;;;;;;;;;;;7.42;67.71;98695.16;4978815;28;902;-78
2021/01/21 02:09:03;;;;;;;;;;;;;;;7.31;67.64;98683.28;4979799;28;2025;-78
2021/01/21 02:11:53;;;;;;;;;;;;;;;7.25;67.81;98682.00;4980424;28;929;-78
2021/01/21 02:14:45;;;;;;;;;;;;;;;7.21;68.04;98683.94;4981614;28;834;-78
2021/01/21 02:17:19;;;;;;;;;;;;;;;7.15;68.35;98670.53;4987811;28;2009;-78
2021/01/21 02:20:10;;;;;;;;;;;;;;;7.11;68.91;98669.72;4987653;28;1888;-77
2021/01/21 02:23:25;;;;;;;;;;;;;;;7.09;68.75;98663.78;4987752;28;1938;-77
2021/01/21 02:25:59;;;;;;;;;;;;;;;7.13;68.76;98633.66;4988725;28;902;-77
2021/01/21 02:28:49;;;;;;;;;;;;;;;7.05;68.66;98637.47;4989050;28;2033;-77
2021/01/21 02:31:43;;;;;;;;;;;;;;;7.09;68.70;98627.31;4992276;28;1005;-78
2021/01/21 02:34:21;;;;;;;;;;;;;;;7.07;69.03;98610.44;4991307;28;1004;-78
2021/01/21 02:36:52;;;;;;;;;;;;;;;7.02;69.05;98602.56;4991117;28;950;-78
2021/01/21 02:39:20;;;;;;;;;;;;;;;7.02;69.13;98602.56;4980064;28;2091;-78
2021/01/21 02:41:45;;;;;;;;;;;;;;;7.03;68.79;98595.91;4978227;28;1887;-78
2021/01/21 02:44:11;;;;;;;;;;;;;;;7.02;68.96;98584.13;4977909;28;1001;-78
2021/01/21 02:46:36;;;;;;;;;;;;;;;7.00;68.89;98582.94;4977936;28;981;-78
2021/01/21 02:49:02;;;;;;;;;;;;;;;6.97;68.40;98587.19;4977448;28;2156;-77
2021/01/21 02:51:44;;;;;;;;;;;;;;;6.97;69.01;98559.75;4977866;28;997;-78
2021/01/21 02:54:29;;;;;;;;;;;;;;;6.94;68.49;98561.31;4977901;28;968;-78
2021/01/21 02:57:06;;;;;;;;;;;;;;;6.91;68.61;98534.63;4977467;28;1953;-78
2021/01/21 02:59:37;;;;;;;;;;;;;;;6.81;69.27;98523.53;4977640;28;1424;-78
2021/01/21 03:02:08;;;;;;;;;;;;;;;6.77;69.82;98523.50;4977738;28;1947;-78
2021/01/21 03:04:37;;;;;;;;;;;;;;;6.92;69.21;98516.19;4977908;28;1008;-78
2021/01/21 03:07:04;;;;;;;;;;;;;;;6.84;69.18;98515.34;4977345;28;2023;-77
2021/01/21 03:09:30;;;;;;;;;;;;;;;6.91;68.83;98500.94;4977684;28;1357;-78
2021/01/21 03:12:14;;;;;;;;;;;;;;;6.82;69.40;98489.44;4977620;28;879;-78
2021/01/21 03:14:40;;;;;;;;;;;;;;;6.95;68.59;98497.03;4977347;28;855;-78
2021/01/21 03:17:05;;;;;;;;;;;;;;;7.06;68.38;98486.19;4977104;28;2020;-79
2021/01/21 03:19:30;;;;;;;;;;;;;;;6.97;68.48;98493.91;4977252;28;1313;-78
2021/01/21 03:21:55;;;;;;;;;;;;;;;7.12;67.70;98481.91;4977555;28;1890;-78
2021/01/21 03:24:21;;;;;;;;;;;;;;;7.03;68.39;98488.91;4976896;28;1063;-78
2021/01/21 03:26:46;;;;;;;;;;;;;;;7.08;68.04;98467.38;4977025;28;2045;-78
2021/01/21 03:29:11;;;;;;;;;;;;;;;7.18;67.36;98487.88;4977154;28;1253;-79
2021/01/21 03:31:36;;;;;;;;;;;;;;;7.00;68.16;98492.38;4977403;28;831;-78
2021/01/21 03:34:02;;;;;;;;;;;;;;;7.00;67.73;98476.72;4977187;28;1009;-78
2021/01/21 03:36:27;;;;;;;;;;;;;;;7.00;68.37;98473.97;4976996;28;2029;-78
2021/01/21 03:38:53;;;;;;;;;;;;;;;7.08;67.76;98474.84;4976548;28;1365;-78
2021/01/21 03:41:18;;;;;;;;;;;;;;;7.13;67.81;98469.78;4977032;28;966;-78
2021/01/21 03:43:43;;;;;;;;;;;;;;;7.08;67.85;98461.13;4976332;28;2419;-78
2021/01/21 03:46:08;;;;;;;;;;;;;;;7.09;67.31;98459.94;4976891;28;909;-78
2021/01/21 03:48:34;;;;;;;;;;;;;;;7.21;67.22;98456.13;4977718;28;1275;-79
2021/01/21 03:50:59;;;;;;;;;;;;;;;7.36;66.84;98435.84;4977684;28;945;-78
2021/01/21 03:53:24;;;;;;;;;;;;;;;7.48;66.25;98446.53;4976994;28;2003;-78
2021/01/21 03:55:49;;;;;;;;;;;;;;;7.47;65.55;98441.41;4977055;28;1071;-78
2021/01/21 03:58:15;;;;;;;;;;;;;;;7.40;66.18;98436.66;4976856;28;1934;-78
2021/01/21 04:00:40;;;;;;;;;;;;;;;7.56;65.96;98394.41;4975579;28;2049;-78
2021/01/21 04:03:05;;;;;;;;;;;;;;;7.82;64.54;98416.16;4976014;28;2117;-78
2021/01/21 04:05:31;;;;;;;;;;;;;;;8.02;63.72;98415.84;4976511;28;973;-79
2021/01/21 04:07:56;;;;;;;;;;;;;;;8.00;63.62;98413.50;4976479;28;1267;-78
2021/01/21 04:10:21;;;;;;;;;;;;;;;8.08;63.06;98417.03;4976643;28;1934;-79
2021/01/21 04:12:46;;;;;;;;;;;;;;;8.22;62.53;98397.09;4975737;28;2663;-78
2021/01/21 04:15:12;;;;;;;;;;;;;;;8.32;62.60;98412.81;4976699;28;1012;-78
2021/01/21 04:17:37;;;;;;;;;;;;;;;8.36;62.82;98394.41;4976057;28;1294;-79
2021/01/21 04:20:03;;;;;;;;;;;;;;;8.31;63.00;98394.78;4976891;28;973;-79
2021/01/21 04:22:28;;;;;;;;;;;;;;;8.32;62.87;98404.56;4974778;28;2140;-78
2021/01/21 04:24:53;;;;;;;;;;;;;;;8.19;63.69;98373.91;4976972;28;898;-78
2021/01/21 04:27:19;;;;;;;;;;;;;;;8.43;62.46;98371.66;4976638;28;1400;-79
2021/01/21 04:29:44;;;;;;;;;;;;;;;8.48;61.59;98376.78;4979524;28;926;-79
2021/01/21 04:32:09;;;;;;;;;;;;;;;8.58;61.71;98367.78;4980041;28;1819;-78
2021/01/21 04:34:34;;;;;;;;;;;;;;;8.73;61.42;98365.03;4980920;28;1040;-78
2021/01/21 04:37:00;;;;;;;;;;;;;;;8.74;60.47;98353.63;4979391;28;1220;-78
2021/01/21 04:39:25;;;;;;;;;;;;;;;8.89;60.53;98348.13;4981148;28;1286;-78
2021/01/21 04:41:50;;;;;;;;;;;;;;;8.82;60.72;98352.47;4978824;28;2025;-78
2021/01/21 04:44:16;;;;;;;;;;;;;;;8.85;60.67;98348.91;4980392;28;1000;-79
2021/01/21 04:46:41;;;;;;;;;;;;;;;8.93;59.80;98322.19;4980728;28;904;-78
2021/01/21 04:49:07;;;;;;;;;;;;;;;8.88;60.54;98339.09;4980678;28;1270;-79
2021/01/21 04:51:33;;;;;;;;;;;;;;;8.98;60.09;98312.72;4978709;28;1922;-79
2021/01/21 04:54:02;;;;;;;;;;;;;;;9.01;59.69;98323.78;4980624;28;810;-78
2021/01/21 04:56:43;;;;;;;;;;;;;;;8.99;60.56;98317.84;4980468;28;881;-78
2021/01/21 04:59:13;;;;;;;;;;;;;;;9.09;59.57;98321.78;4979973;28;1285;-79
2021/01/21 05:01:39;;;;;;;;;;;;;;;9.09;59.90;98307.25;4978960;28;1950;-78
2021/01/21 05:04:05;;;;;;;;;;;;;;;9.19;59.23;98300.94;4980163;28;842;-79
2021/01/21 05:06:31;;;;;;;;;;;;;;;9.28;58.83;98319.78;4980448;28;956;-79
2021/01/21 05:08:58;;;;;;;;;;;;;;;9.21;59.83;98288.31;4979507;28;1267;-78
2021/01/21 05:11:23;;;;;;;;;;;;;;;9.19;59.55;98274.19;4979170;28;1957;-79
2021/01/21 05:13:49;;;;;;;;;;;;;;;9.32;58.87;98271.78;4979780;28;996;-78
2021/01/21 05:16:14;;;;;;;;;;;;;;;9.39;59.05;98274.50;4980750;28;834;-79
2021/01/21 05:18:43;;;;;;;;;;;;;;;9.35;59.61;98259.19;4980174;28;1290;-79
2021/01/21 05:21:08;;;;;;;;;;;;;;;9.39;59.07;98260.72;4978967;28;2118;-79
2021/01/21 05:23:34;;;;;;;;;;;;;;;9.46;59.19;98267.41;4980059;28;1910;-79
2021/01/21 05:25:59;;;;;;;;;;;;;;;9.69;58.32;98253.94;4979870;28;818;-78
2021/01/21 05:28:26;;;;;;;;;;;;;;;9.62;58.83;98255.94;4979496;28;1276;-78
2021/01/21 05:30:53;;;;;;;;;;;;;;;9.66;58.92;98240.19;4978428;28;1998;-79
2021/01/21 05:33:20;;;;;;;;;;;;;;;9.74;58.28;98239.75;4979155;28;1910;-78
2021/01/21 05:35:47;;;;;;;;;;;;;;;9.78;58.56;98254.28;4979660;28;1017;-79
2021/01/21 05:38:13;;;;;;;;;;;;;;;9.77;58.18;98249.19;4979809;28;1372;-80
2021/01/21 05:40:44;;;;;;;;;;;;;;;9.89;58.03;98248.72;4979803;28;2156;-78
2021/01/21 05:43:10;;;;;;;;;;;;;;;9.97;58.05;98243.97;4979594;28;1954;-79
2021/01/21 05:45:35;;;;;;;;;;;;;;;10.08;58.42;98246.66;4981512;28;1091;-79
2021/01/21 05:48:02;;;;;;;;;;;;;;;9.99;58.89;98244.34;4979230;28;1302;-78
2021/01/21 05:50:29;;;;;;;;;;;;;;;10.07;58.15;98228.53;4980742;28;898;-79
2021/01/21 05:52:56;;;;;;;;;;;;;;;10.19;57.67;98236.34;4978337;28;1727;-79
2021/01/21 05:55:23;;;;;;;;;;;;;;;10.10;57.98;98241.50;4979639;28;996;-79
2021/01/21 05:57:49;;;;;;;;;;;;;;;10.10;58.52;98261.59;4979457;28;1376;-81
2021/01/21 06:00:16;;;;;;;;;;;;;;;10.24;57.63;98243.41;4980752;28;890;-80
2021/01/21 06:02:43;;;;;;;;;;;;;;;10.30;57.30;98250.06;4978919;28;2068;-80
2021/01/21 06:05:12;;;;;;;;;;;;;;;10.41;57.26;98245.28;4980384;28;1048;-79
2021/01/21 06:07:39;;;;;;;;;;;;;;;10.35;57.73;98255.19;4980457;28;1264;-79
2021/01/21 06:10:05;;;;;;;;;;;;;;;10.30;58.94;98275.66;4980262;28;770;-80
2021/01/21 06:12:32;;;;;;;;;;;;;;;10.17;59.29;98291.09;4978936;28;2128;-79
2021/01/21 06:15:01;;;;;;;;;;;;;;;10.12;60.86;98328.16;4980699;28;1055;-79
2021/01/21 06:17:27;;;;;;;;;;;;;;;8.36;66.85;98476.09;4981147;28;1337;-78
2021/01/21 06:19:53;;;;;;;;;;;;;;;5.57;80.17;98514.00;4979444;28;941;-78
2021/01/21 06:22:22;;;;;;;;;;;;;;;4.69;81.66;98497.25;4978853;28;1891;-81
2021/01/21 06:24:51;;;;;;;;;;;;;;;4.33;83.85;98521.09;4980176;28;814;-80
2021/01/21 06:27:17;;;;;;;;;;;;;;;4.30;82.26;98529.22;4978423;28;1988;-80
2021/01/21 06:29:46;;;;;;;;;;;;;;;4.25;81.11;98518.59;4981577;28;909;-80
2021/01/21 06:32:14;;;;;;;;;;;;;;;4.21;81.91;98523.97;4982369;28;808;-79
2021/01/21 06:34:41;;;;;;;;;;;;;;;4.23;82.23;98518.16;4980616;28;917;-80
2021/01/21 06:37:12;;;;;;;;;;;;;;;4.22;81.27;98524.75;4980953;28;2066;-80
2021/01/21 06:39:37;;;;;;;;;;;;;;;4.24;81.79;98534.19;4981857;28;913;-80
2021/01/21 06:42:04;;;;;;;;;;;;;;;4.38;80.60;98521.97;4979216;28;1988;-81
2021/01/21 06:44:30;;;;;;;;;;;;;;;4.37;80.37;98520.41;4974590;28;1943;-81
2021/01/21 06:46:55;;;;;;;;;;;;;;;4.57;80.49;98530.19;4974915;28;1907;-81
2021/01/21 06:49:21;;;;;;;;;;;;;;;4.74;80.66;98525.41;4973702;28;2195;-81
2021/01/21 06:51:48;;;;;;;;;;;;;;;4.74;80.87;98525.41;4981635;28;2074;-81
2021/01/21 06:54:15;;;;;;;;;;;;;;;4.89;78.80;98546.44;4981150;28;2215;-81
2021/01/21 06:56:40;;;;;;;;;;;;;;;4.94;78.57;98559.81;4984114;28;850;-81
2021/01/21 06:59:05;;;;;;;;;;;;;;;5.01;78.03;98557.19;4983857;28;1370;-81
2021/01/21 07:01:42;;;;;;;;;;;;;;;4.89;79.09;98560.88;4980103;28;2323;-81
2021/01/21 07:04:10;;;;;;;;;;;;;;;4.84;77.66;98574.84;4980843;28;2173;-81
2021/01/21 07:06:53;;;;;;;;;;;;;;;4.76;78.35;98548.53;4978313;28;2160;-83
2021/01/21 07:09:26;;;;;;;;;;;;;;;4.74;77.11;98566.44;4971085;28;2402;-82
2021/01/21 07:11:59;;;;;;;;;;;;;;;4.70;77.75;98588.22;4974784;28;2172;-81
2021/01/21 07:14:32;;;;;;;;;;;;;;;4.69;78.21;98598.38;4971955;28;2276;-81
2021/01/21 07:17:05;;;;;;;;;;;;;;;4.62;78.12;98602.91;4976227;28;2176;-81
2021/01/21 07:19:44;;;;;;;;;;;;;;;4.67;77.65;98608.91;4977886;28;2193;-81
2021/01/21 07:22:15;;;;;;;;;;;;;;;4.71;77.15;98598.03;4977067;28;2058;-81
2021/01/21 07:24:54;;;;;;;;;;;;;;;4.70;77.34;98607.38;4980699;28;1931;-81
2021/01/21 07:27:20;;;;;;;;;;;;;;;4.90;75.66;98630.06;4980918;28;2313;-79
2021/01/21 07:29:46;;;;;;;;;;;;;;;4.95;75.05;98624.31;4980986;28;2218;-78
2021/01/21 07:32:11;;;;;;;;;;;;;;;4.87;75.49;98641.72;4981271;28;2130;-79
2021/01/21 07:34:38;;;;;;;;;;;;;;;4.90;75.71;98668.34;4980687;28;2111;-79
2021/01/21 07:37:11;;;;;;;;;;;;;;;4.88;76.38;98646.03;4979100;28;2254;-79
2021/01/21 07:39:55;;;;;;;;;;;;;;;4.93;75.70;98675.03;4977118;28;2136;-78
2021/01/21 07:42:23;;;;;;;;;;;;;;;5.01;75.64;98679.50;4979113;28;2225;-80
2021/01/21 07:45:00;;;;;;;;;;;;;;;4.98;75.95;98680.22;4978878;28;2070;-80
2021/01/21 07:47:31;;;;;;;;;;;;;;;5.00;75.75;98692.41;4978402;28;2059;-81
2021/01/21 07:50:19;;;;;;;;;;;;;;;5.01;75.39;98696.69;4978822;28;2008;-80
2021/01/21 07:52:55;;;;;;;;;;;;;;;5.03;75.36;98688.91;4979231;28;2261;-80
2021/01/21 07:55:35;;;;;;;;;;;;;;;5.11;75.39;98730.13;4979609;28;2863;-80
2021/01/21 07:58:39;;;;;;;;;;;;;;;5.10;75.15;98707.44;4977579;28;2172;-79
2021/01/21 08:01:08;;;;;;;;;;;;;;;5.13;75.00;98725.09;4952799;28;2273;-79
2021/01/21 08:03:41;;;;;;;;;;;;;;;5.17;74.58;98704.84;4976250;28;2440;-80
2021/01/21 08:06:17;;;;;;;;;;;;;;;5.17;75.03;98715.00;4977558;28;2219;-78
2021/01/21 08:08:48;;;;;;;;;;;;;;;5.16;74.74;98724.38;4974992;28;1932;-78
2021/01/21 08:11:18;;;;;;;;;;;;;;;5.23;74.21;98722.56;4978409;28;2269;-79
2021/01/21 08:13:44;;;;;;;;;;;;;;;5.22;73.37;98725.66;4977849;28;2352;-79
2021/01/21 08:16:20;;;;;;;;;;;;;;;5.25;73.61;98746.84;4973982;28;2246;-79
2021/01/21 08:18:45;;;;;;;;;;;;;;;5.35;71.74;98745.50;4976783;28;2037;-79
2021/01/21 08:21:25;;;;;;;;;;;;;;;5.39;71.70;98741.66;4977330;28;2014;-80
2021/01/21 08:24:01;;;;;;;;;;;;;;;5.33;72.05;98728.63;4978565;28;2209;-81
2021/01/21 08:26:28;;;;;;;;;;;;;;;5.30;71.89;98751.25;4977582;28;2257;-79
2021/01/21 08:28:54;;;;;;;;;;;;;;;5.31;70.90;98758.28;4978529;28;2254;-80
2021/01/21 08:31:29;;;;;;;;;;;;;;;5.28;70.74;98778.97;4979416;28;1920;-79
2021/01/21 08:33:55;;;;;;;;;;;;;;;5.20;71.30;98774.47;4980317;28;1361;-81
2021/01/21 08:36:23;;;;;;;;;;;;;;;5.16;71.23;98804.50;4979305;28;1431;-79
2021/01/21 08:38:49;;;;;;;;;;;;;;;5.09;71.99;98788.72;4970802;28;1476;-81
2021/01/21 08:41:15;;;;;;;;;;;;;;;5.08;71.73;98795.31;4965595;28;1274;-80
2021/01/21 08:43:43;;;;;;;;;;;;;;;5.11;72.24;98804.00;4981982;28;1898;-80
2021/01/21 08:46:13;;;;;;;;;;;;;;;5.15;71.68;98824.00;4982744;28;1266;-80
2021/01/21 08:48:39;;;;;;;;;;;;;;;5.09;71.63;98799.66;4980230;28;1704;-79
2021/01/21 08:51:23;;;;;;;;;;;;;;;6.38;68.03;98823.41;4961793;28;842;-80
2021/01/21 08:53:49;;;;;;;;;;;;;;;6.48;67.24;98815.72;4962992;28;827;-79
2021/01/21 08:56:14;;;;;;;;;;;;;;;7.78;63.33;98804.66;4963224;28;1981;-79
2021/01/21 08:58:39;;;;;;;;;;;;;;;8.63;58.41;98815.00;4978671;28;1929;-79
2021/01/21 09:01:10;;;;;;;;;;;;;;;7.87;60.18;98819.72;4978742;28;885;-79
2021/01/21 09:03:48;;;;;;;;;;;;;;;7.17;61.40;98834.84;4976634;28;1965;-79
2021/01/21 09:06:21;;;;;;;;;;;;;;;7.00;61.20;98838.91;4978970;28;881;-79
2021/01/21 09:08:57;;;;;;;;;;;;;;;7.32;61.86;98835.88;4979546;28;1781;-79
2021/01/21 09:11:34;;;;;;;;;;;;;;;8.57;56.71;98844.81;4979531;28;1021;-79
2021/01/21 09:14:04;;;;;;;;;;;;;;;9.49;52.73;98836.84;4980522;28;783;-80
2021/01/21 09:16:44;;;;;;;;;;;;;;;9.00;53.38;98855.41;4983642;28;1000;-81
2021/01/21 09:19:11;;;;;;;;;;;;;;;11.40;47.43;98852.63;4982815;28;1870;-83
2021/01/21 09:21:37;;;;;;;;;;;;;;;11.60;44.76;98838.34;4972047;28;1770;-80
2021/01/21 09:24:07;;;;;;;;;;;;;;;11.70;44.73;98859.66;4982100;28;1875;-81
2021/01/21 09:26:32;;;;;;;;;;;;;;;11.52;43.95;98867.19;4986860;28;1562;-81
2021/01/21 09:28:58;;;;;;;;;;;;;;;10.84;44.25;98870.78;4964443;28;1839;-82
2021/01/21 09:31:27;;;;;;;;;;;;;;;11.54;42.95;98875.88;4964281;28;798;-79
2021/01/21 09:33:53;;;;;;;;;;;;;;;11.52;42.81;98887.31;4963719;28;1008;-81
2021/01/21 09:36:27;;;;;;;;;;;;;;;12.45;41.71;98885.47;4964557;28;882;-80
2021/01/21 09:38:53;;;;;;;;;;;;;;;13.44;38.85;98885.13;4964704;28;1353;-80
2021/01/21 09:41:18;;;;;;;;;;;;;;;14.27;37.97;98887.78;4966025;28;798;-79
2021/01/21 09:43:44;;;;;;;;;;;;;;;14.09;38.13;98888.78;4965190;28;1902;-81
2021/01/21 09:46:09;;;;;;;;;;;;;;;13.00;39.30;98889.47;4965311;28;858;-81
2021/01/21 09:48:34;;;;;;;;;;;;;;;11.09;44.56;98901.97;4965005;29;1321;-81
2021/01/21 09:51:00;;;;;;;;;;;;;;;11.50;43.71;98895.22;4963325;29;984;-80
2021/01/21 09:53:26;;;;;;;;;;;;;;;12.45;42.31;98893.75;4965212;28;922;-80
2021/01/21 09:55:55;;;;;;;;;;;;;;;13.37;40.01;98899.06;4964683;28;981;-79
2021/01/21 09:58:22;;;;;;;;;;;;;;;13.25;40.51;98898.34;4963350;28;1364;-79
2021/01/21 10:00:47;;;;;;;;;;;;;;;13.48;40.10;98902.53;4963873;28;802;-80
2021/01/21 10:03:12;;;;;;;;;;;;;;;13.57;40.23;98904.84;4964640;29;1898;-80
2021/01/21 10:05:38;;;;;;;;;;;;;;;10.90;44.02;98903.16;4963025;28;1020;-78
2021/01/21 10:08:03;;;;;;;;;;;;;;;12.53;41.80;98911.91;4960943;29;1308;-79
2021/01/21 10:10:29;;;;;;;;;;;;;;;13.98;37.73;98913.13;4960422;29;972;-79
2021/01/21 10:12:54;;;;;;;;;;;;;;;13.10;38.88;98917.06;4962213;28;810;-80
2021/01/21 10:15:19;;;;;;;;;;;;;;;13.04;40.00;98909.59;4962041;29;1058;-79
2021/01/21 10:17:44;;;;;;;;;;;;;;;13.24;38.83;98923.72;4962768;29;1311;-81
2021/01/21 10:20:10;;;;;;;;;;;;;;;13.81;37.65;98930.75;4963151;29;877;-79
2021/01/21 10:22:36;;;;;;;;;;;;;;;13.47;39.30;98921.16;4962626;29;1958;-80
2021/01/21 10:25:01;;;;;;;;;;;;;;;13.62;38.54;98910.72;4963991;28;877;-81
2021/01/21 10:27:29;;;;;;;;;;;;;;;13.83;38.15;98909.69;4962884;28;1388;-81
2021/01/21 10:29:55;;;;;;;;;;;;;;;15.35;35.66;98909.25;4964715;29;973;-82
2021/01/21 10:32:20;;;;;;;;;;;;;;;15.68;35.32;98892.00;4964304;29;1010;-82
2021/01/21 10:34:45;;;;;;;;;;;;;;;14.67;35.22;98913.06;4962426;29;1540;-83
2021/01/21 10:37:11;;;;;;;;;;;;;;;15.43;35.36;98912.66;4964464;28;1254;-82
2021/01/21 10:39:36;;;;;;;;;;;;;;;16.07;33.76;98913.50;4963990;28;1015;-81
2021/01/21 10:42:01;;;;;;;;;;;;;;;14.98;34.65;98916.56;4963608;28;1887;-81
2021/01/21 10:44:26;;;;;;;;;;;;;;;14.95;33.92;98916.63;4963906;28;798;-82
2021/01/21 10:46:52;;;;;;;;;;;;;;;15.08;34.09;98914.06;4964213;29;910;-82
2021/01/21 10:49:17;;;;;;;;;;;;;;;12.31;39.68;98927.81;4962936;29;1468;-82
2021/01/21 10:51:42;;;;;;;;;;;;;;;13.95;36.38;98918.72;4964102;29;829;-81
2021/01/21 10:54:08;;;;;;;;;;;;;;;14.60;35.32;98915.94;4963330;29;958;-81
2021/01/21 10:56:33;;;;;;;;;;;;;;;13.69;36.25;98918.19;4963779;28;889;-81
2021/01/21 10:59:01;;;;;;;;;;;;;;;12.52;38.07;98913.88;4963386;28;1255;-82
2021/01/21 11:01:27;;;;;;;;;;;;;;;11.14;41.69;98935.91;4964321;28;877;-81
2021/01/21 11:03:52;;;;;;;;;;;;;;;9.65;45.26;98911.72;4963183;28;1875;-81
2021/01/21 11:06:17;;;;;;;;;;;;;;;8.97;48.26;98922.22;4961316;28;829;-80
2021/01/21 11:08:43;;;;;;;;;;;;;;;12.75;38.90;98921.66;4962069;29;1363;-80
2021/01/21 11:11:08;;;;;;;;;;;;;;;14.57;35.17;98922.28;4962815;29;905;-80
2021/01/21 11:13:33;;;;;;;;;;;;;;;12.53;38.96;98911.91;4963401;29;1052;-81
2021/01/21 11:15:59;;;;;;;;;;;;;;;12.68;38.66;98941.06;4963313;28;999;-80
2021/01/21 11:18:24;;;;;;;;;;;;;;;14.00;36.57;98932.09;4962613;28;1284;-81
2021/01/21 11:20:50;;;;;;;;;;;;;;;11.36;41.90;98907.09;4963870;28;778;-80
2021/01/21 11:23:15;;;;;;;;;;;;;;;13.80;37.68;98909.75;4965956;28;1898;-80
2021/01/21 11:25:42;;;;;;;;;;;;;;;15.14;34.64;98918.72;4964430;28;1015;-80
2021/01/21 11:28:07;;;;;;;;;;;;;;;13.86;36.94;98910.84;4970008;28;1275;-79
2021/01/21 11:30:32;;;;;;;;;;;;;;;14.54;35.85;98925.94;4969599;29;1051;-79
2021/01/21 11:32:58;;;;;;;;;;;;;;;11.70;42.29;98928.78;4978034;28;798;-80
2021/01/21 11:35:24;;;;;;;;;;;;;;;13.35;39.34;98922.44;4980563;28;1052;-80
2021/01/21 11:37:49;;;;;;;;;;;;;;;15.01;35.65;98904.63;4980360;28;1259;-82
2021/01/21 11:40:15;;;;;;;;;;;;;;;14.24;36.48;98914.41;4979978;29;1001;-81
2021/01/21 11:42:40;;;;;;;;;;;;;;;11.17;42.43;98957.22;4978911;28;1871;-80
2021/01/21 11:45:06;;;;;;;;;;;;;;;11.15;43.38;98913.41;4980049;28;1056;-81
2021/01/21 11:47:39;;;;;;;;;;;;;;;9.96;47.66;98926.06;4980381;28;1288;-82
2021/01/21 11:50:07;;;;;;;;;;;;;;;12.23;41.10;98925.09;4980777;28;977;-82
2021/01/21 11:52:32;;;;;;;;;;;;;;;13.06;39.84;98921.06;4980608;28;953;-83
2021/01/21 11:54:57;;;;;;;;;;;;;;;14.23;37.36;98907.25;4978901;28;1236;-82
2021/01/21 11:57:23;;;;;;;;;;;;;;;13.65;37.91;98900.78;4983211;28;1291;-82
2021/01/21 11:59:48;;;;;;;;;;;;;;;13.53;38.76;98899.28;4961744;29;1516;-81
2021/01/21 12:02:13;;;;;;;;;;;;;;;14.95;36.03;98891.63;4963257;28;1898;-81
2021/01/21 12:04:38;;;;;;;;;;;;;;;14.94;36.01;98882.50;4962518;29;1000;-81
2021/01/21 12:07:04;;;;;;;;;;;;;;;12.79;39.94;98891.19;4963043;29;1020;-81
2021/01/21 12:09:29;;;;;;;;;;;;;;;11.38;43.93;98909.47;4961866;29;1267;-80
2021/01/21 12:11:54;;;;;;;;;;;;;;;9.97;47.32;98911.13;4962046;28;1079;-81
2021/01/21 12:14:19;;;;;;;;;;;;;;;8.93;50.57;98913.13;4961221;29;897;-81
2021/01/21 12:16:45;;;;;;;;;;;;;;;8.56;51.17;98914.75;4962187;29;849;-80
2021/01/21 12:19:10;;;;;;;;;;;;;;;8.02;54.27;98900.34;4961744;28;1260;-82
2021/01/21 12:21:35;;;;;;;;;;;;;;;8.03;54.46;98892.91;4961049;28;988;-81
2021/01/21 12:24:01;;;;;;;;;;;;;;;7.90;53.65;98917.09;4959791;29;1891;-80
2021/01/21 12:26:27;;;;;;;;;;;;;;;8.76;52.94;98909.06;4962630;28;860;-81
2021/01/21 12:28:53;;;;;;;;;;;;;;;9.28;51.26;98896.13;4962310;28;1260;-80
2021/01/21 12:31:18;;;;;;;;;;;;;;;11.61;44.34;98903.50;4961327;29;990;-82
2021/01/21 12:33:43;;;;;;;;;;;;;;;12.04;44.27;98884.03;4961318;29;1019;-81
2021/01/21 12:36:09;;;;;;;;;;;;;;;10.57;46.05;98887.69;4960868;29;817;-80
2021/01/21 12:38:34;;;;;;;;;;;;;;;9.27;50.47;98896.50;4958675;29;1403;-80
2021/01/21 12:40:59;;;;;;;;;;;;;;;9.59;49.16;98881.00;4960689;29;997;-80
2021/01/21 12:43:25;;;;;;;;;;;;;;;9.85;48.54;98903.97;4961275;29;1890;-79
2021/01/21 12:45:50;;;;;;;;;;;;;;;9.45;49.94;98888.34;4960547;29;1064;-80
2021/01/21 12:48:19;;;;;;;;;;;;;;;11.01;45.87;98886.59;4961056;28;1295;-81
2021/01/21 12:50:45;;;;;;;;;;;;;;;12.32;42.52;98872.09;4964099;28;1028;-80
2021/01/21 12:53:10;;;;;;;;;;;;;;;11.10;44.16;98864.88;4964356;28;908;-79
2021/01/21 12:55:36;;;;;;;;;;;;;;;11.53;44.00;98861.28;4964078;29;904;-82
2021/01/21 12:58:02;;;;;;;;;;;;;;;9.73;47.75;98863.75;4965199;28;1329;-81
2021/01/21 13:00:28;;;;;;;;;;;;;;;8.46;51.73;98874.16;4964151;28;985;-81
2021/01/21 13:02:53;;;;;;;;;;;;;;;8.61;52.60;98867.63;4964989;29;1934;-80
2021/01/21 13:05:19;;;;;;;;;;;;;;;9.14;50.41;98855.50;4964222;28;841;-80
2021/01/21 13:07:44;;;;;;;;;;;;;;;9.73;48.71;98876.75;4965041;29;1303;-80
2021/01/21 13:10:11;;;;;;;;;;;;;;;9.20;50.70;98872.47;4964027;28;780;-80